Weather at Thankerton private airstrip

Public forecast

Using degrees Celsius for public forecast. Weather courtesy of forecast.io.

Closest aviation weather report (METAR) to Thankerton private airstrip

Closest report is Edinburgh Airport, 21.3 nm (39.4 km) NNE.

2024/05/26 07:50 (retrieved 11 minutes ago)

EGPH 260750Z 07012KT 4000 RA BKN003 12/11 Q1010

Closest aviation forecast (TAF) to Thankerton private airstrip

Closest forecast is Edinburgh Airport, 21.3 nm (39.4 km) NNE.

2024/05/26 06:00 (retrieved 2 hours ago)

TAF EGPH 260455Z 2606/2706 08010KT 9999 SCT004 BKN015 TEMPO 2606/2614 5000 RA BKN004 PROB40 TEMPO 2606/2614 2000 +RA RADZ BECMG 2613/2616 VRB03KT TEMPO 2614/2706 6000 SHRA BKN008 PROB30 TEMPO 2614/2620 3000 +TSRA